Portada
METAR-TAF:

METAR-TAF

Aeroports :

Ivalo, Finlàndia

latitud: 68-37N, longitud: 027-25E, altitud: 147 m

Observació

L'informe es va fer fa 19 minuts, a les 08:20 UTC
Vent 3 kt del Est, variant entre Nord/Nord-Oest i Sud/Sud-Est
Temperatura 19°C
Humitat 64%
Pressió 1021 hPa
Visibilitat 10 km o més
sense núvols per sota de 1500 mi sense presència de cumulonimbus.

METAR: EFIV 080820Z AUTO 09003KT 340V150 CAVOK 19/12 Q1021

Hora: 11:39 (08:39 UTC)

Pronòstic

L'informe es va fer fa 21 hores i 16 minuts, a les 11:23 UTC
Pronòstic vàlid del 07 a les 12 UTC al 07 a les 16 UTC
Vent 4 kt del Nord/Nord-Oest
Visibilitat 10 km o més
Escasses núvols a una alçada de 4000 ft

TAF: EFIV 071123Z 0712/0716 33004KT 9999 FEW040

Observacions i pronòstics meteorològics de més de 4000 aeroports (METAR i TAF).

Les estacions disponibles són els punts grocs i vermells al mapa.

Posi el ratolí al punt desitjat per veure el nom de l'estació.

Feu clic per veure les observacions i els pronòstics meteorològics.

Per canviar el mapa: feu clic els botons verds amb una creu de color negre per apropar; al botó verd amb un guió per allunyar la imatge; o en les fletxes verdes per a mapes adjacents.


METAR-TAF: